Time,TemperatureF,DewpointF,PressureIn,WindDirection,WindDirectionDegrees,WindSpeedMPH,WindSpeedGustMPH,Humidity,HourlyPrecipIn,Conditions,Clouds,dailyrainin,SoftwareType,DateUTC
2013-07-07 00:00:00,66.8,63.5,30.07,SSE,154,0.0,0.0,89,0.00,,,0.00,Wunderground v.1.15,2013-07-07 05:00:00,
2013-07-07 00:05:00,66.8,63.5,30.07,SSE,154,0.0,0.0,89,0.00,,,0.00,Wunderground v.1.15,2013-07-07 05:05:00,
2013-07-07 00:15:00,66.6,63.3,30.07,SSE,154,0.0,0.0,89,0.00,,,0.00,Wunderground v.1.15,2013-07-07 05:15:00,
2013-07-07 00:20:00,66.5,63.2,30.07,SSE,154,0.0,0.0,89,0.00,,,0.00,Wunderground v.1.15,2013-07-07 05:20:00,
2013-07-07 00:30:00,66.4,63.1,30.06,SSE,154,0.0,0.0,89,0.00,,,0.00,Wunderground v.1.15,2013-07-07 05:30:00,
2013-07-07 00:35:00,66.3,63.0,30.06,SSE,154,0.0,0.0,89,0.00,,,0.00,Wunderground v.1.15,2013-07-07 05:35:00,
2013-07-07 00:45:00,66.1,62.8,30.05,SSE,154,0.0,0.0,89,0.00,,,0.00,Wunderground v.1.15,2013-07-07 05:45:00,
2013-07-07 00:55:00,65.9,62.6,30.05,SSE,154,0.0,0.0,89,0.00,,,0.00,Wunderground v.1.15,2013-07-07 05:55:00,
2013-07-07 01:00:00,65.8,62.5,30.05,SSE,148,0.0,1.0,89,0.00,,,0.00,Wunderground v.1.15,2013-07-07 06:00:00,
2013-07-07 01:10:00,65.7,62.7,30.05,SE,144,1.0,2.0,90,0.00,,,0.00,Wunderground v.1.15,2013-07-07 06:10:00,
2013-07-07 01:15:00,65.7,62.7,30.05,SE,143,1.0,2.0,90,0.00,,,0.00,Wunderground v.1.15,2013-07-07 06:15:00,
2013-07-07 01:20:00,65.7,62.7,30.04,SE,145,1.0,3.0,90,0.00,,,0.00,Wunderground v.1.15,2013-07-07 06:20:00,
2013-07-07 01:30:00,65.7,62.7,30.05,SSE,153,2.0,2.0,90,0.00,,,0.00,Wunderground v.1.15,2013-07-07 06:30:00,
2013-07-07 01:40:00,65.7,62.7,30.05,SSE,155,1.0,1.0,90,0.00,,,0.00,Wunderground v.1.15,2013-07-07 06:40:00,
2013-07-07 01:45:00,65.7,62.7,30.05,SSE,155,0.0,1.0,90,0.00,,,0.00,Wunderground v.1.15,2013-07-07 06:45:00,
2013-07-07 01:50:00,65.7,62.7,30.05,SSE,161,1.0,2.0,90,0.00,,,0.00,Wunderground v.1.15,2013-07-07 06:50:00,
2013-07-07 02:00:00,65.6,62.6,30.05,SSE,161,2.0,2.0,90,0.00,,,0.00,Wunderground v.1.15,2013-07-07 07:00:00,
2013-07-07 02:10:00,65.5,62.5,30.04,SSE,162,0.0,0.0,90,0.00,,,0.00,Wunderground v.1.15,2013-07-07 07:10:00,
2013-07-07 02:15:00,65.5,62.5,30.04,SSE,162,0.0,0.0,90,0.00,,,0.00,Wunderground v.1.15,2013-07-07 07:15:00,
2013-07-07 02:25:00,65.4,62.4,30.05,SSE,162,0.0,0.0,90,0.00,,,0.00,Wunderground v.1.15,2013-07-07 07:25:00,
2013-07-07 02:30:00,65.4,62.4,30.05,SSE,162,0.0,0.0,90,0.00,,,0.00,Wunderground v.1.15,2013-07-07 07:30:00,
2013-07-07 02:40:00,65.1,62.1,30.04,SSE,162,0.0,0.0,90,0.00,,,0.00,Wunderground v.1.15,2013-07-07 07:40:00,
2013-07-07 02:45:00,65.0,62.0,30.04,SSE,162,0.0,0.0,90,0.00,,,0.00,Wunderground v.1.15,2013-07-07 07:45:00,
2013-07-07 02:55:00,64.7,61.4,30.04,SSE,162,0.0,0.0,89,0.00,,,0.00,Wunderground v.1.15,2013-07-07 07:55:00,
2013-07-07 03:05:00,64.4,61.1,30.04,SSE,162,0.0,0.0,89,0.00,,,0.00,Wunderground v.1.15,2013-07-07 08:05:00,
2013-07-07 03:10:00,64.3,61.3,30.04,SSE,162,0.0,0.0,90,0.00,,,0.00,Wunderground v.1.15,2013-07-07 08:10:00,
2013-07-07 03:15:00,64.2,61.2,30.04,SSE,162,0.0,0.0,90,0.00,,,0.00,Wunderground v.1.15,2013-07-07 08:15:00,
2013-07-07 03:25:00,64.0,61.0,30.04,SSE,162,0.0,0.0,90,0.00,,,0.00,Wunderground v.1.15,2013-07-07 08:25:00,
2013-07-07 03:30:00,64.0,61.0,30.05,SSE,162,0.0,0.0,90,0.00,,,0.00,Wunderground v.1.15,2013-07-07 08:30:00,
2013-07-07 03:40:00,64.1,61.4,30.05,SSE,162,0.0,0.0,91,0.00,,,0.00,Wunderground v.1.15,2013-07-07 08:40:00,
2013-07-07 03:50:00,64.0,61.3,30.04,SSE,162,0.0,0.0,91,0.00,,,0.00,Wunderground v.1.15,2013-07-07 08:50:00,
2013-07-07 03:55:00,64.0,61.3,30.04,SSE,162,0.0,0.0,91,0.00,,,0.00,Wunderground v.1.15,2013-07-07 08:55:00,
2013-07-07 04:05:00,63.9,61.2,30.04,SSE,162,0.0,0.0,91,0.00,,,0.00,Wunderground v.1.15,2013-07-07 09:05:00,
2013-07-07 04:15:00,63.8,61.1,30.04,SSE,162,0.0,0.0,91,0.00,,,0.00,Wunderground v.1.15,2013-07-07 09:15:00,
2013-07-07 04:20:00,63.7,61.0,30.04,SSE,162,0.0,0.0,91,0.00,,,0.00,Wunderground v.1.15,2013-07-07 09:20:00,
2013-07-07 04:30:00,63.6,60.9,30.05,SSE,162,0.0,0.0,91,0.00,,,0.00,Wunderground v.1.15,2013-07-07 09:30:00,
2013-07-07 04:35:00,63.6,60.9,30.05,SSE,162,0.0,0.0,91,0.00,,,0.00,Wunderground v.1.15,2013-07-07 09:35:00,
2013-07-07 04:45:00,63.7,61.0,30.05,SSE,162,0.0,0.0,91,0.00,,,0.00,Wunderground v.1.15,2013-07-07 09:45:00,
2013-07-07 04:50:00,63.7,61.0,30.05,SSE,162,0.0,0.0,91,0.00,,,0.00,Wunderground v.1.15,2013-07-07 09:50:00,
2013-07-07 05:00:00,63.8,61.1,30.05,SSE,162,1.0,1.0,91,0.00,,,0.00,Wunderground v.1.15,2013-07-07 10:00:00,
2013-07-07 05:10:00,63.7,61.0,30.06,SSE,161,0.0,1.0,91,0.00,,,0.00,Wunderground v.1.15,2013-07-07 10:10:00,
2013-07-07 05:15:00,63.7,61.0,30.06,SSE,161,1.0,2.0,91,0.00,,,0.00,Wunderground v.1.15,2013-07-07 10:15:00,
2013-07-07 05:25:00,63.9,61.2,30.06,SSE,161,1.0,1.0,91,0.00,,,0.00,Wunderground v.1.15,2013-07-07 10:25:00,
2013-07-07 05:30:00,64.0,61.6,30.06,SSE,161,0.0,0.0,92,0.00,,,0.00,Wunderground v.1.15,2013-07-07 10:30:00,
2013-07-07 05:40:00,64.2,61.8,30.07,SSE,161,0.0,0.0,92,0.00,,,0.00,Wunderground v.1.15,2013-07-07 10:40:00,
2013-07-07 05:45:00,64.4,62.0,30.07,SSE,161,0.0,0.0,92,0.00,,,0.00,Wunderground v.1.15,2013-07-07 10:45:00,
2013-07-07 05:55:00,64.9,62.5,30.07,SSE,161,1.0,2.0,92,0.00,,,0.00,Wunderground v.1.15,2013-07-07 10:55:00,
2013-07-07 06:00:00,65.1,62.7,30.07,SSE,161,1.0,1.0,92,0.00,,,0.00,Wunderground v.1.15,2013-07-07 11:00:00,
2013-07-07 06:10:00,65.4,63.0,30.07,SSE,162,1.0,1.0,92,0.00,,,0.00,Wunderground v.1.15,2013-07-07 11:10:00,
2013-07-07 06:15:00,65.6,63.2,30.07,SSE,163,1.0,1.0,92,0.00,,,0.00,Wunderground v.1.15,2013-07-07 11:15:00,
2013-07-07 06:25:00,65.8,63.4,30.08,SSE,168,1.0,4.0,92,0.00,,,0.00,Wunderground v.1.15,2013-07-07 11:25:00,
2013-07-07 06:30:00,66.0,63.6,30.07,South,169,1.0,1.0,92,0.00,,,0.00,Wunderground v.1.15,2013-07-07 11:30:00,
2013-07-07 06:35:00,66.2,63.8,30.07,South,169,1.0,3.0,92,0.00,,,0.00,Wunderground v.1.15,2013-07-07 11:35:00,
2013-07-07 06:45:00,66.5,64.1,30.08,South,186,3.0,4.0,92,0.00,,,0.00,Wunderground v.1.15,2013-07-07 11:45:00,
2013-07-07 06:50:00,66.7,64.3,30.08,South,186,3.0,3.0,92,0.00,,,0.00,Wunderground v.1.15,2013-07-07 11:50:00,
2013-07-07 07:00:00,66.9,64.5,30.08,SSW,205,2.0,5.0,92,0.00,,,0.00,Wunderground v.1.15,2013-07-07 12:00:00,
2013-07-07 07:05:00,66.9,64.5,30.08,SSW,206,2.0,5.0,92,0.00,,,0.00,Wunderground v.1.15,2013-07-07 12:05:00,
2013-07-07 07:15:00,67.2,64.8,30.08,SSW,206,1.0,2.0,92,0.00,,,0.00,Wunderground v.1.15,2013-07-07 12:15:00,
2013-07-07 07:20:00,67.4,65.0,30.08,SSW,207,1.0,1.0,92,0.00,,,0.00,Wunderground v.1.15,2013-07-07 12:20:00,
2013-07-07 07:30:00,67.7,65.3,30.08,SSW,207,4.0,4.0,92,0.00,,,0.00,Wunderground v.1.15,2013-07-07 12:30:00,
2013-07-07 07:35:00,67.8,65.4,30.09,SSW,208,4.0,4.0,92,0.00,,,0.00,Wunderground v.1.15,2013-07-07 12:35:00,
2013-07-07 07:45:00,68.1,65.7,30.09,SSW,209,5.0,5.0,92,0.00,,,0.00,Wunderground v.1.15,2013-07-07 12:45:00,
2013-07-07 07:50:00,68.2,65.8,30.09,SSW,209,5.0,5.0,92,0.00,,,0.00,Wunderground v.1.15,2013-07-07 12:50:00,
2013-07-07 08:00:00,68.3,65.9,30.09,SSW,209,5.0,6.0,92,0.00,,,0.00,Wunderground v.1.15,2013-07-07 13:00:00,
2013-07-07 08:05:00,68.4,66.0,30.09,SSW,209,5.0,6.0,92,0.00,,,0.00,Wunderground v.1.15,2013-07-07 13:05:00,
2013-07-07 08:15:00,68.7,66.3,30.09,SSW,202,1.0,4.0,92,0.00,,,0.00,Wunderground v.1.15,2013-07-07 13:15:00,
2013-07-07 08:20:00,68.8,66.4,30.09,SSE,163,2.0,2.0,92,0.00,,,0.00,Wunderground v.1.15,2013-07-07 13:20:00,
2013-07-07 08:25:00,68.9,66.5,30.09,SSE,168,3.0,3.0,92,0.00,,,0.00,Wunderground v.1.15,2013-07-07 13:25:00,
2013-07-07 08:35:00,69.5,67.1,30.09,South,182,2.0,2.0,92,0.00,,,0.00,Wunderground v.1.15,2013-07-07 13:35:00,
2013-07-07 08:45:00,70.1,67.3,30.09,South,183,3.0,4.0,91,0.00,,,0.00,Wunderground v.1.15,2013-07-07 13:45:00,
2013-07-07 08:50:00,70.4,67.0,30.09,South,187,3.0,3.0,89,0.00,,,0.00,Wunderground v.1.15,2013-07-07 13:50:00,
2013-07-07 09:00:00,71.2,67.1,30.09,SSW,209,4.0,5.0,87,0.00,,,0.00,Wunderground v.1.15,2013-07-07 14:00:00,
2013-07-07 09:10:00,72.4,67.6,30.09,SSW,200,4.0,4.0,85,0.00,,,0.00,Wunderground v.1.15,2013-07-07 14:10:00,
2013-07-07 09:15:00,73.5,68.4,30.09,SSW,211,6.0,9.0,84,0.00,,,0.00,Wunderground v.1.15,2013-07-07 14:15:00,
2013-07-07 09:25:00,75.5,67.8,30.09,South,184,6.0,7.0,77,0.00,,,0.00,Wunderground v.1.15,2013-07-07 14:25:00,
2013-07-07 09:30:00,76.0,68.3,30.09,SSW,205,6.0,7.0,77,0.00,,,0.00,Wunderground v.1.15,2013-07-07 14:30:00,
2013-07-07 09:40:00,77.1,67.8,30.08,SW,215,8.0,11.0,73,0.00,,,0.00,Wunderground v.1.15,2013-07-07 14:40:00,
2013-07-07 09:45:00,77.2,67.1,30.09,SSW,209,8.0,11.0,71,0.00,,,0.00,Wunderground v.1.15,2013-07-07 14:45:00,
2013-07-07 09:55:00,76.9,67.2,30.08,SSW,207,9.0,10.0,72,0.00,,,0.00,Wunderground v.1.15,2013-07-07 14:55:00,
2013-07-07 10:00:00,76.9,67.2,30.08,SSW,211,8.0,8.0,72,0.00,,,0.00,Wunderground v.1.15,2013-07-07 15:00:00,
2013-07-07 10:10:00,76.7,66.6,30.08,SSW,211,7.0,8.0,71,0.00,,,0.00,Wunderground v.1.15,2013-07-07 15:10:00,
2013-07-07 10:15:00,76.6,66.9,30.08,SSW,202,7.0,9.0,72,0.00,,,0.00,Wunderground v.1.15,2013-07-07 15:15:00,
2013-07-07 10:25:00,77.2,67.9,30.08,SSW,207,5.0,7.0,73,0.00,,,0.00,Wunderground v.1.15,2013-07-07 15:25:00,
2013-07-07 10:30:00,77.7,67.5,30.09,South,184,5.0,6.0,71,0.00,,,0.00,Wunderground v.1.15,2013-07-07 15:30:00,
2013-07-07 10:40:00,78.7,68.1,30.08,SSW,207,7.0,7.0,70,0.00,,,0.00,Wunderground v.1.15,2013-07-07 15:40:00,
2013-07-07 10:45:00,79.3,68.7,30.08,SSW,199,8.0,8.0,70,0.00,,,0.00,Wunderground v.1.15,2013-07-07 15:45:00,
2013-07-07 10:55:00,80.8,69.2,30.08,SSW,213,8.0,11.0,68,0.00,,,0.00,Wunderground v.1.15,2013-07-07 15:55:00,
2013-07-07 11:00:00,81.4,69.4,30.08,SW,215,9.0,9.0,67,0.00,,,0.00,Wunderground v.1.15,2013-07-07 16:00:00,
2013-07-07 11:10:00,82.4,69.9,30.08,SSW,203,6.0,9.0,66,0.00,,,0.00,Wunderground v.1.15,2013-07-07 16:10:00,
2013-07-07 11:15:00,83.1,70.1,30.08,SW,224,7.0,9.0,65,0.00,,,0.00,Wunderground v.1.15,2013-07-07 16:15:00,
2013-07-07 11:25:00,82.9,69.9,30.08,SW,216,8.0,9.0,65,0.00,,,0.00,Wunderground v.1.15,2013-07-07 16:25:00,
2013-07-07 11:35:00,82.4,69.9,30.08,SSW,195,6.0,7.0,66,0.00,,,0.00,Wunderground v.1.15,2013-07-07 16:35:00,
2013-07-07 11:40:00,82.4,69.4,30.08,SSW,197,6.0,6.0,65,0.00,,,0.00,Wunderground v.1.15,2013-07-07 16:40:00,
2013-07-07 11:45:00,82.3,69.4,30.08,SSW,202,5.0,6.0,65,0.00,,,0.00,Wunderground v.1.15,2013-07-07 16:45:00,
2013-07-07 11:55:00,82.7,71.1,30.08,SSW,213,5.0,9.0,68,0.00,,,0.00,Wunderground v.1.15,2013-07-07 16:55:00,
2013-07-07 12:00:00,83.3,71.6,30.07,SW,215,6.0,6.0,68,0.00,,,0.00,Wunderground v.1.15,2013-07-07 17:00:00,
2013-07-07 12:10:00,85.2,71.6,30.07,SSW,208,6.0,8.0,64,0.00,,,0.00,Wunderground v.1.15,2013-07-07 17:10:00,
2013-07-07 12:15:00,86.0,71.0,30.07,SSW,213,6.0,8.0,61,0.00,,,0.00,Wunderground v.1.15,2013-07-07 17:15:00,
2013-07-07 12:25:00,86.9,71.8,30.07,SW,219,7.0,7.0,61,0.00,,,0.00,Wunderground v.1.15,2013-07-07 17:25:00,
2013-07-07 12:30:00,87.1,71.5,30.07,SSW,199,7.0,7.0,60,0.00,,,0.00,Wunderground v.1.15,2013-07-07 17:30:00,
2013-07-07 12:40:00,87.9,70.8,30.07,South,190,5.0,8.0,57,0.00,,,0.00,Wunderground v.1.15,2013-07-07 17:40:00,
2013-07-07 12:45:00,87.9,70.2,30.06,SW,216,5.0,8.0,56,0.00,,,0.00,Wunderground v.1.15,2013-07-07 17:45:00,
2013-07-07 12:55:00,87.4,70.3,30.06,SSW,196,5.0,5.0,57,0.00,,,0.00,Wunderground v.1.15,2013-07-07 17:55:00,
2013-07-07 13:00:00,87.3,70.7,30.06,SW,225,6.0,8.0,58,0.00,,,0.00,Wunderground v.1.15,2013-07-07 18:00:00,
2013-07-07 13:10:00,86.6,69.6,30.06,SSE,167,5.0,5.0,57,0.00,,,0.00,Wunderground v.1.15,2013-07-07 18:10:00,
2013-07-07 13:15:00,86.6,71.1,30.06,SSW,209,5.0,5.0,60,0.00,,,0.00,Wunderground v.1.15,2013-07-07 18:15:00,
2013-07-07 13:25:00,86.9,70.3,30.06,South,186,5.0,6.0,58,0.00,,,0.00,Wunderground v.1.15,2013-07-07 18:25:00,
2013-07-07 13:30:00,86.8,70.2,30.06,South,173,4.0,4.0,58,0.00,,,0.00,Wunderground v.1.15,2013-07-07 18:30:00,
2013-07-07 13:35:00,86.6,70.6,30.06,South,171,4.0,4.0,59,0.00,,,0.00,Wunderground v.1.15,2013-07-07 18:35:00,
2013-07-07 13:45:00,86.4,70.9,30.06,South,191,2.0,5.0,60,0.00,,,0.00,Wunderground v.1.15,2013-07-07 18:45:00,
2013-07-07 13:55:00,86.4,71.4,30.06,SSW,203,4.0,4.0,61,0.00,,,0.00,Wunderground v.1.15,2013-07-07 18:55:00,
2013-07-07 14:00:00,86.3,70.8,30.05,SSW,207,4.0,5.0,60,0.00,,,0.00,Wunderground v.1.15,2013-07-07 19:00:00,
2013-07-07 14:05:00,86.0,69.5,30.05,South,180,4.0,5.0,58,0.00,,,0.00,Wunderground v.1.15,2013-07-07 19:05:00,
2013-07-07 14:15:00,86.1,71.6,30.05,South,182,3.0,3.0,62,0.00,,,0.00,Wunderground v.1.15,2013-07-07 19:15:00,
2013-07-07 14:20:00,86.4,72.8,30.05,SSE,161,4.0,4.0,64,0.00,,,0.00,Wunderground v.1.15,2013-07-07 19:20:00,
2013-07-07 14:30:00,86.7,71.6,30.05,South,188,4.0,7.0,61,0.00,,,0.00,Wunderground v.1.15,2013-07-07 19:30:00,
2013-07-07 14:35:00,86.8,71.2,30.05,SSW,196,4.0,10.0,60,0.00,,,0.00,Wunderground v.1.15,2013-07-07 19:35:00,
2013-07-07 14:45:00,86.7,71.6,30.05,SSE,157,6.0,6.0,61,0.00,,,0.00,Wunderground v.1.15,2013-07-07 19:45:00,
2013-07-07 14:50:00,86.8,72.2,30.04,SSE,155,5.0,5.0,62,0.00,,,0.00,Wunderground v.1.15,2013-07-07 19:50:00,
2013-07-07 14:55:00,87.2,71.6,30.04,SSW,202,5.0,5.0,60,0.00,,,0.00,Wunderground v.1.15,2013-07-07 19:55:00,
2013-07-07 15:05:00,87.8,70.7,30.04,SSE,154,5.0,5.0,57,0.00,,,0.00,Wunderground v.1.15,2013-07-07 20:05:00,
2013-07-07 15:15:00,87.9,70.2,30.04,SSE,160,6.0,7.0,56,0.00,,,0.00,Wunderground v.1.15,2013-07-07 20:15:00,
2013-07-07 15:20:00,87.9,70.8,30.04,South,170,5.0,5.0,57,0.00,,,0.00,Wunderground v.1.15,2013-07-07 20:20:00,
2013-07-07 15:30:00,87.4,70.3,30.04,SSW,197,6.0,6.0,57,0.00,,,0.00,Wunderground v.1.15,2013-07-07 20:30:00,
2013-07-07 15:35:00,87.4,70.8,30.03,South,180,6.0,6.0,58,0.00,,,0.00,Wunderground v.1.15,2013-07-07 20:35:00,
2013-07-07 15:45:00,87.6,71.5,30.03,SSW,202,5.0,5.0,59,0.00,,,0.00,Wunderground v.1.15,2013-07-07 20:45:00,
2013-07-07 15:50:00,87.5,70.9,30.03,South,184,6.0,6.0,58,0.00,,,0.00,Wunderground v.1.15,2013-07-07 20:50:00,
2013-07-07 16:00:00,87.4,71.3,30.02,SSW,213,5.0,5.0,59,0.00,,,0.00,Wunderground v.1.15,2013-07-07 21:00:00,
2013-07-07 16:10:00,87.3,71.2,30.02,SSE,160,6.0,6.0,59,0.00,,,0.00,Wunderground v.1.15,2013-07-07 21:10:00,
2013-07-07 16:15:00,87.4,71.8,30.02,SSW,211,5.0,7.0,60,0.00,,,0.00,Wunderground v.1.15,2013-07-07 21:15:00,
2013-07-07 16:20:00,87.4,72.3,30.02,SW,215,5.0,12.0,61,0.00,,,0.00,Wunderground v.1.15,2013-07-07 21:20:00,
2013-07-07 16:30:00,87.0,70.9,30.01,SE,136,6.0,8.0,59,0.00,,,0.00,Wunderground v.1.15,2013-07-07 21:30:00,
2013-07-07 16:35:00,86.9,70.8,30.02,South,185,5.0,8.0,59,0.00,,,0.00,Wunderground v.1.15,2013-07-07 21:35:00,
2013-07-07 16:45:00,86.7,71.2,30.02,South,171,6.0,6.0,60,0.00,,,0.00,Wunderground v.1.15,2013-07-07 21:45:00,
2013-07-07 16:50:00,86.6,70.6,30.01,South,173,5.0,5.0,59,0.00,,,0.00,Wunderground v.1.15,2013-07-07 21:50:00,
2013-07-07 17:00:00,86.4,70.9,30.01,SSW,205,5.0,5.0,60,0.00,,,0.00,Wunderground v.1.15,2013-07-07 22:00:00,
2013-07-07 17:05:00,86.3,71.3,30.01,SSE,163,5.0,7.0,61,0.00,,,0.00,Wunderground v.1.15,2013-07-07 22:05:00,
2013-07-07 17:15:00,86.1,70.6,30.01,South,184,5.0,5.0,60,0.00,,,0.00,Wunderground v.1.15,2013-07-07 22:15:00,
2013-07-07 17:20:00,86.0,70.5,30.01,SSW,194,6.0,6.0,60,0.00,,,0.00,Wunderground v.1.15,2013-07-07 22:20:00,
2013-07-07 17:30:00,85.9,71.4,30.01,SSW,213,6.0,7.0,62,0.00,,,0.00,Wunderground v.1.15,2013-07-07 22:30:00,
2013-07-07 17:35:00,85.9,70.4,30.01,SW,215,7.0,7.0,60,0.00,,,0.00,Wunderground v.1.15,2013-07-07 22:35:00,
2013-07-07 17:45:00,85.9,70.4,30.01,South,186,6.0,8.0,60,0.00,,,0.00,Wunderground v.1.15,2013-07-07 22:45:00,
2013-07-07 17:50:00,85.8,70.3,30.01,SSW,212,7.0,9.0,60,0.00,,,0.00,Wunderground v.1.15,2013-07-07 22:50:00,
2013-07-07 18:00:00,85.5,70.0,30.01,South,189,6.0,7.0,60,0.00,,,0.00,Wunderground v.1.15,2013-07-07 23:00:00,
2013-07-07 18:05:00,85.4,70.4,30.01,SSW,200,5.0,7.0,61,0.00,,,0.00,Wunderground v.1.15,2013-07-07 23:05:00,
2013-07-07 18:15:00,85.2,70.7,30.00,SSW,209,6.0,7.0,62,0.00,,,0.00,Wunderground v.1.15,2013-07-07 23:15:00,
2013-07-07 18:20:00,85.1,70.1,30.00,SW,230,7.0,7.0,61,0.00,,,0.00,Wunderground v.1.15,2013-07-07 23:20:00,
2013-07-07 18:30:00,84.8,70.8,30.01,SSW,196,4.0,5.0,63,0.00,,,0.00,Wunderground v.1.15,2013-07-07 23:30:00,
2013-07-07 18:35:00,84.7,70.7,30.01,SSE,161,4.0,6.0,63,0.00,,,0.00,Wunderground v.1.15,2013-07-07 23:35:00,
2013-07-07 18:45:00,84.5,70.0,30.01,SSE,157,4.0,6.0,62,0.00,,,0.00,Wunderground v.1.15,2013-07-07 23:45:00,
2013-07-07 18:50:00,84.4,70.9,30.01,SSW,192,4.0,7.0,64,0.00,,,0.00,Wunderground v.1.15,2013-07-07 23:50:00,
2013-07-07 18:55:00,84.3,70.8,30.01,SSE,166,4.0,7.0,64,0.00,,,0.00,Wunderground v.1.15,2013-07-07 23:55:00,
2013-07-07 19:05:00,84.1,71.1,30.02,SSE,167,3.0,5.0,65,0.00,,,0.00,Wunderground v.1.15,2013-07-08 00:05:00,
2013-07-07 19:15:00,83.7,71.1,30.02,South,173,2.0,2.0,66,0.00,,,0.00,Wunderground v.1.15,2013-07-08 00:15:00,
2013-07-07 19:20:00,83.6,71.5,30.02,South,174,2.0,2.0,67,0.00,,,0.00,Wunderground v.1.15,2013-07-08 00:20:00,
2013-07-07 19:25:00,83.4,71.7,30.02,South,174,1.0,2.0,68,0.00,,,0.00,Wunderground v.1.15,2013-07-08 00:25:00,
2013-07-07 19:35:00,83.0,71.3,30.02,South,176,0.0,1.0,68,0.00,,,0.00,Wunderground v.1.15,2013-07-08 00:35:00,
2013-07-07 19:45:00,82.6,71.0,30.03,South,177,1.0,4.0,68,0.00,,,0.00,Wunderground v.1.15,2013-07-08 00:45:00,
2013-07-07 19:50:00,82.3,71.1,30.03,South,178,0.0,0.0,69,0.00,,,0.00,Wunderground v.1.15,2013-07-08 00:50:00,
2013-07-07 20:00:00,81.6,70.9,30.03,SSW,193,0.0,0.0,70,0.00,,,0.00,Wunderground v.1.15,2013-07-08 01:00:00,
2013-07-07 20:05:00,81.2,70.5,30.03,SSW,192,0.0,0.0,70,0.00,,,0.00,Wunderground v.1.15,2013-07-08 01:05:00,
2013-07-07 20:15:00,80.6,70.3,30.03,South,179,1.0,3.0,71,0.00,,,0.00,Wunderground v.1.15,2013-07-08 01:15:00,
2013-07-07 20:25:00,80.0,70.2,30.03,South,176,2.0,5.0,72,0.00,,,0.00,Wunderground v.1.15,2013-07-08 01:25:00,
2013-07-07 20:30:00,79.7,69.9,30.03,South,174,3.0,3.0,72,0.00,,,0.00,Wunderground v.1.15,2013-07-08 01:30:00,
2013-07-07 20:40:00,79.3,69.9,30.03,South,173,3.0,3.0,73,0.00,,,0.00,Wunderground v.1.15,2013-07-08 01:40:00,
2013-07-07 20:45:00,79.0,70.0,30.03,South,178,3.0,4.0,74,0.00,,,0.00,Wunderground v.1.15,2013-07-08 01:45:00,
2013-07-07 20:55:00,78.6,69.6,30.04,South,175,3.0,3.0,74,0.00,,,0.00,Wunderground v.1.15,2013-07-08 01:55:00,
2013-07-07 21:00:00,78.4,69.8,30.04,South,186,4.0,4.0,75,0.00,,,0.00,Wunderground v.1.15,2013-07-08 02:00:00,
2013-07-07 21:10:00,77.8,69.6,30.04,South,185,2.0,2.0,76,0.00,,,0.00,Wunderground v.1.15,2013-07-08 02:10:00,
2013-07-07 21:20:00,77.2,69.4,30.04,South,177,1.0,1.0,77,0.00,,,0.00,Wunderground v.1.15,2013-07-08 02:20:00,
2013-07-07 21:25:00,76.9,69.5,30.04,South,175,1.0,1.0,78,0.00,,,0.00,Wunderground v.1.15,2013-07-08 02:25:00,
2013-07-07 21:35:00,76.4,69.4,30.05,SSE,154,3.0,3.0,79,0.00,,,0.00,Wunderground v.1.15,2013-07-08 02:35:00,
2013-07-07 21:40:00,76.2,69.6,30.05,SSE,156,2.0,2.0,80,0.00,,,0.00,Wunderground v.1.15,2013-07-08 02:40:00,
2013-07-07 21:50:00,75.9,70.0,30.05,SSE,151,3.0,3.0,82,0.00,,,0.00,Wunderground v.1.15,2013-07-08 02:50:00,
2013-07-07 21:55:00,75.8,69.9,30.05,SSE,157,3.0,3.0,82,0.00,,,0.00,Wunderground v.1.15,2013-07-08 02:55:00,
2013-07-07 22:05:00,75.5,69.6,30.05,South,169,2.0,2.0,82,0.00,,,0.00,Wunderground v.1.15,2013-07-08 03:05:00,
2013-07-07 22:10:00,75.5,70.0,30.05,South,175,2.0,3.0,83,0.00,,,0.00,Wunderground v.1.15,2013-07-08 03:10:00,
2013-07-07 22:20:00,75.4,69.5,30.05,South,173,4.0,4.0,82,0.00,,,0.00,Wunderground v.1.15,2013-07-08 03:20:00,
2013-07-07 22:30:00,75.3,69.4,30.05,South,173,1.0,1.0,82,0.00,,,0.00,Wunderground v.1.15,2013-07-08 03:30:00,
2013-07-07 22:35:00,75.3,69.4,30.05,South,173,2.0,2.0,82,0.00,,,0.00,Wunderground v.1.15,2013-07-08 03:35:00,
2013-07-07 22:45:00,75.3,69.4,30.05,South,175,2.0,2.0,82,0.00,,,0.00,Wunderground v.1.15,2013-07-08 03:45:00,
2013-07-07 22:50:00,75.3,69.4,30.05,South,176,2.0,3.0,82,0.00,,,0.00,Wunderground v.1.15,2013-07-08 03:50:00,
2013-07-07 23:00:00,75.2,69.3,30.06,South,177,2.0,3.0,82,0.00,,,0.00,Wunderground v.1.15,2013-07-08 04:00:00,
2013-07-07 23:05:00,75.2,69.3,30.06,South,177,3.0,3.0,82,0.00,,,0.00,Wunderground v.1.15,2013-07-08 04:05:00,
2013-07-07 23:10:00,75.1,69.2,30.06,South,173,3.0,4.0,82,0.00,,,0.00,Wunderground v.1.15,2013-07-08 04:10:00,
2013-07-07 23:15:00,75.1,69.2,30.06,South,171,3.0,4.0,82,0.00,,,0.00,Wunderground v.1.15,2013-07-08 04:15:00,
2013-07-07 23:25:00,75.0,69.1,30.07,South,171,2.0,3.0,82,0.00,,,0.00,Wunderground v.1.15,2013-07-08 04:25:00,
2013-07-07 23:30:00,75.0,69.1,30.07,South,174,2.0,5.0,82,0.00,,,0.00,Wunderground v.1.15,2013-07-08 04:30:00,
2013-07-07 23:35:00,74.9,69.0,30.07,South,172,3.0,6.0,82,0.00,,,0.00,Wunderground v.1.15,2013-07-08 04:35:00,
2013-07-07 23:45:00,74.8,68.9,30.07,South,173,4.0,5.0,82,0.00,,,0.00,Wunderground v.1.15,2013-07-08 04:45:00,
2013-07-07 23:50:00,74.7,68.8,30.07,South,172,3.0,3.0,82,0.00,,,0.00,Wunderground v.1.15,2013-07-08 04:50:00,